首页
METAR-TAF:

METAR-TAF

机场 :

武汉天河国际机场

武汉, 中华人民共和国

纬度: 30-37N, 经度: 114-08E, 海拔: 23米

当前天气观测

该预报发布于36分钟前的04:00 UTC
风速4节,风向,在西东北之间变化
温度 9°C
湿度 87%
气压 1025 hPa
能見度: 3000
散云层高于1200英尺
阴天层高于4000英尺
小雨, 轻雾

METAR: ZHHH 180400Z 35002MPS 260V050 3000 -RA BR SCT012 OVC040 09/07 Q1025 NOSIG

时间: 12:36 (04:36 UTC)

预报

该预报发布于9小时和23分钟前的19:13 UTC
预报有效从18日的 00点(UTC)到 18日的 24点(UTC)
风速6节,风向北转东北
能見度: 3000
散云层高于1500英尺
小雨, 轻雾
成为
从 18日的 07点(UTC)到 18日的 08点(UTC)
能見度: 4000
轻雾
短暂存在
从 18日的 00点(UTC)到 18日的 04点(UTC)
能見度: 2800
雨, 轻雾

TAF: ZHHH 171913Z 1800/1824 02003MPS 3000 -RA BR SCT015 TX12/1807Z TN06/1822Z BECMG 1807/1808 4000 BR TEMPO 1800/1804 2800 RA BR

超过4000个机场的气象观测和天气预报(METAR&TAF报告)。

可查询的气象台以黄色和红色小点在地图上表示。

将鼠标移到小点上方,可查看气象台名称。

然后点击查看天气观测和预报。

如需切换地图:点击带黑十字的绿色按钮放大地图;点击带横线的绿色按钮缩小地图;或者点击绿色箭头查看邻近地区的地图。


METAR-TAF: